Time;durP1;ratioP1;P1;durP2;ratioP2;P2;SDS_P1;SDS_P2;PMS_P1;PMS_P2;Temp;Humidity;BMP_temperature;BMP_pressure;BME280_temperature;BME280_humidity;BME280_pressure;Samples;Min_cycle;Max_cycle;Signal;HPM_P1;HPM_P2
2021/07/19 00:01:17;;;;;;;5.82;2.60;;;18.60;99.90;;;;;;6174156;28;20535;-77
2021/07/19 00:04:20;;;;;;;5.03;2.63;;;18.50;99.90;;;;;;6177596;28;20116;-77
2021/07/19 00:07:23;;;;;;;3.60;2.58;;;18.60;99.90;;;;;;6197544;28;20046;-77
2021/07/19 00:10:25;;;;;;;4.43;2.70;;;18.60;99.90;;;;;;6197569;28;20050;-77
2021/07/19 00:13:28;;;;;;;4.35;3.00;;;18.60;99.90;;;;;;6201986;28;20054;-77
2021/07/19 00:16:30;;;;;;;7.05;3.22;;;18.60;99.90;;;;;;6202206;28;20133;-77
2021/07/19 00:19:33;;;;;;;7.22;3.03;;;18.60;99.90;;;;;;6203764;28;20411;-77
2021/07/19 00:22:35;;;;;;;5.43;2.92;;;18.60;99.90;;;;;;6202513;28;20100;-77
2021/07/19 00:25:37;;;;;;;3.55;2.90;;;18.50;99.90;;;;;;6202779;28;20185;-77
2021/07/19 00:28:39;;;;;;;7.18;3.53;;;18.50;99.90;;;;;;6202291;28;20130;-77
2021/07/19 00:31:41;;;;;;;7.07;3.65;;;18.40;99.90;;;;;;6201952;28;20590;-77
2021/07/19 00:34:44;;;;;;;5.60;4.07;;;18.40;99.90;;;;;;6202056;28;20192;-77
2021/07/19 00:37:46;;;;;;;9.00;4.43;;;18.40;99.90;;;;;;6202502;28;20189;-77
2021/07/19 00:40:48;;;;;;;4.22;3.10;;;18.40;99.90;;;;;;6201901;28;20177;-77
2021/07/19 00:43:50;;;;;;;7.57;2.95;;;18.30;99.90;;;;;;6201939;28;20519;-77
2021/07/19 00:46:54;;;;;;;6.10;3.05;;;18.30;99.90;;;;;;6201529;28;20427;-77
2021/07/19 00:49:57;;;;;;;4.50;2.92;;;18.20;99.90;;;;;;6202045;28;20046;-77
2021/07/19 00:52:59;;;;;;;15.13;3.38;;;18.20;99.90;;;;;;6201719;28;20046;-78
2021/07/19 00:56:01;;;;;;;6.65;3.28;;;18.10;99.90;;;;;;6201606;28;20046;-77
2021/07/19 00:59:03;;;;;;;5.63;3.30;;;18.10;99.90;;;;;;6201624;28;20043;-77
2021/07/19 01:02:07;;;;;;;3.95;2.55;;;18.10;99.90;;;;;;6201798;28;20205;-77
2021/07/19 01:05:12;;;;;;;6.13;3.38;;;18.00;99.90;;;;;;6202453;28;20140;-77
2021/07/19 01:08:14;;;;;;;4.22;2.97;;;18.00;99.90;;;;;;6201135;28;20046;-77
2021/07/19 01:11:17;;;;;;;11.77;3.75;;;17.90;99.90;;;;;;6201804;28;20548;-77
2021/07/19 01:14:18;;;;;;;5.43;2.92;;;17.90;99.90;;;;;;6201625;28;20615;-76
2021/07/19 01:17:20;;;;;;;5.97;3.13;;;17.90;99.90;;;;;;6201754;28;20050;-77
2021/07/19 01:20:30;;;;;;;6.80;3.00;;;17.90;99.90;;;;;;6201267;28;20046;-78
2021/07/19 01:23:46;;;;;;;4.60;3.92;;;17.90;99.90;;;;;;6200174;28;20046;-77
2021/07/19 01:27:07;;;;;;;5.50;3.78;;;17.80;99.90;;;;;;6200748;28;20133;-77
2021/07/19 01:30:11;;;;;;;6.35;3.22;;;17.70;99.90;;;;;;6200662;28;20409;-77
2021/07/19 01:33:14;;;;;;;7.60;3.53;;;17.80;99.90;;;;;;6201535;28;20054;-77
2021/07/19 01:36:20;;;;;;;7.15;3.67;;;17.70;99.90;;;;;;6200316;28;20047;-77
2021/07/19 01:39:23;;;;;;;3.47;3.17;;;17.60;99.90;;;;;;6200930;28;20042;-77
2021/07/19 01:42:24;;;;;;;6.40;3.15;;;17.60;99.90;;;;;;6200513;28;20528;-76
2021/07/19 01:45:29;;;;;;;5.38;3.28;;;17.50;99.90;;;;;;6200720;28;20527;-77
2021/07/19 01:48:33;;;;;;;3.97;2.83;;;17.50;99.90;;;;;;6200170;28;20097;-77
2021/07/19 01:51:35;;;;;;;4.28;2.72;;;17.50;99.90;;;;;;6200464;28;20120;-77
2021/07/19 01:54:38;;;;;;;5.13;2.70;;;17.50;99.90;;;;;;6200421;28;20129;-77
2021/07/19 01:57:40;;;;;;;6.15;3.38;;;17.40;99.90;;;;;;6200546;28;20078;-77
2021/07/19 02:00:44;;;;;;;4.60;2.83;;;17.30;99.90;;;;;;6200226;28;20065;-76
2021/07/19 02:03:46;;;;;;;3.70;2.95;;;17.40;99.90;;;;;;6199961;28;20427;-77
2021/07/19 02:06:48;;;;;;;3.90;2.95;;;17.30;99.90;;;;;;6199602;28;20511;-77
2021/07/19 02:09:52;;;;;;;8.38;3.20;;;17.30;99.90;;;;;;6200723;28;20133;-77
2021/07/19 02:12:55;;;;;;;4.13;3.38;;;17.30;99.90;;;;;;6199846;28;20184;-77
2021/07/19 02:15:59;;;;;;;8.93;3.90;;;17.20;99.90;;;;;;6199995;28;20046;-76
2021/07/19 02:19:02;;;;;;;4.35;3.00;;;17.20;99.90;;;;;;6199763;28;20050;-76
2021/07/19 02:22:04;;;;;;;4.00;2.97;;;17.10;99.90;;;;;;6200103;28;20416;-77
2021/07/19 02:25:08;;;;;;;12.30;3.63;;;17.10;99.90;;;;;;6199936;28;20125;-76
2021/07/19 02:28:12;;;;;;;3.97;3.22;;;17.10;99.90;;;;;;6199603;28;20082;-76
2021/07/19 02:31:16;;;;;;;9.48;4.72;;;17.10;99.90;;;;;;6201292;28;20054;-77
2021/07/19 02:34:19;;;;;;;4.63;3.28;;;17.10;99.90;;;;;;6199604;28;20143;-77
2021/07/19 02:37:23;;;;;;;5.80;3.50;;;17.00;99.90;;;;;;6199740;28;20198;-77
2021/07/19 02:40:26;;;;;;;3.38;2.83;;;17.00;99.90;;;;;;6199964;28;20178;-76
2021/07/19 02:43:29;;;;;;;3.60;2.80;;;16.90;99.90;;;;;;6200239;28;20046;-76
2021/07/19 02:46:34;;;;;;;3.35;2.63;;;16.90;99.90;;;;;;6198594;28;20180;-77
2021/07/19 02:49:37;;;;;;;4.18;2.40;;;17.00;99.90;;;;;;6200531;28;20038;-75
2021/07/19 02:52:41;;;;;;;3.08;2.83;;;17.00;99.90;;;;;;6199010;28;20069;-76
2021/07/19 02:55:44;;;;;;;4.65;3.33;;;17.10;99.90;;;;;;6198286;28;20193;-76
2021/07/19 02:58:46;;;;;;;5.88;3.10;;;17.10;99.90;;;;;;6198845;28;20116;-77
2021/07/19 03:01:53;;;;;;;5.35;3.65;;;17.10;99.90;;;;;;6199312;28;20104;-76
2021/07/19 03:04:57;;;;;;;4.18;3.65;;;17.10;99.90;;;;;;6198435;28;20054;-76
2021/07/19 03:07:59;;;;;;;3.28;2.97;;;17.20;99.90;;;;;;6198019;28;20046;-76
2021/07/19 03:11:04;;;;;;;3.72;2.47;;;17.20;99.90;;;;;;6198703;28;20643;-76
2021/07/19 03:14:11;;;;;;;17.15;5.88;;;17.20;99.90;;;;;;6197874;28;20093;-75
2021/07/19 03:17:17;;;;;;;7.13;3.40;;;17.20;99.90;;;;;;6198831;28;20140;-76
2021/07/19 03:20:19;;;;;;;9.57;3.65;;;17.30;99.90;;;;;;6198154;28;20072;-76
2021/07/19 03:23:26;;;;;;;6.53;2.88;;;17.30;99.90;;;;;;6198069;28;20046;-76
2021/07/19 03:26:29;;;;;;;7.32;3.95;;;17.40;99.90;;;;;;6198030;28;20039;-77
2021/07/19 03:29:33;;;;;;;4.47;3.47;;;17.40;99.90;;;;;;6198633;28;20180;-76
2021/07/19 03:32:36;;;;;;;6.15;2.63;;;17.40;99.90;;;;;;6197786;28;20050;-75
2021/07/19 03:35:39;;;;;;;4.40;3.10;;;17.40;99.90;;;;;;6197828;28;20065;-76
2021/07/19 03:38:43;;;;;;;8.95;3.20;;;17.40;99.90;;;;;;6197637;28;20413;-75
2021/07/19 03:41:45;;;;;;;4.55;2.95;;;17.40;99.90;;;;;;6198584;28;20136;-75
2021/07/19 03:44:47;;;;;;;16.77;5.00;;;17.30;99.90;;;;;;6197590;28;20128;-75
2021/07/19 03:47:51;;;;;;;14.00;5.28;;;17.30;99.90;;;;;;6197096;28;20133;-75
2021/07/19 03:50:53;;;;;;;5.97;4.07;;;17.40;99.90;;;;;;6197618;28;20053;-75
2021/07/19 03:53:56;;;;;;;9.05;3.25;;;17.50;99.90;;;;;;6198152;28;20105;-75
2021/07/19 03:56:58;;;;;;;4.72;3.22;;;17.60;99.90;;;;;;6197651;28;20557;-74
2021/07/19 04:00:00;;;;;;;5.05;2.67;;;17.60;99.90;;;;;;6197805;28;20512;-75
2021/07/19 04:03:15;;;;;;;4.88;2.08;;;17.60;99.90;;;;;;6198159;28;20077;-74
2021/07/19 04:06:19;;;;;;;4.70;3.10;;;17.60;99.90;;;;;;6197482;28;20057;-75
2021/07/19 04:09:21;;;;;;;5.88;2.03;;;17.50;99.90;;;;;;6198977;28;20444;-75
2021/07/19 04:12:23;;;;;;;5.47;3.42;;;17.70;99.90;;;;;;6197847;28;20050;-75
2021/07/19 04:15:26;;;;;;;4.88;2.30;;;17.80;99.90;;;;;;6197473;28;20061;-75
2021/07/19 04:18:31;;;;;;;5.15;2.55;;;17.90;99.90;;;;;;6197417;28;20042;-74
2021/07/19 04:21:34;;;;;;;6.80;2.65;;;17.70;99.90;;;;;;6198107;28;20141;-75
2021/07/19 04:24:36;;;;;;;4.13;2.47;;;17.80;99.90;;;;;;6197492;28;20120;-74
2021/07/19 04:27:40;;;;;;;5.30;2.75;;;17.80;99.90;;;;;;6197293;28;20100;-75
2021/07/19 04:30:45;;;;;;;3.22;2.92;;;17.80;99.90;;;;;;6197221;28;20073;-75
2021/07/19 04:33:49;;;;;;;3.55;2.50;;;17.90;99.90;;;;;;6197696;28;20570;-74
2021/07/19 04:36:51;;;;;;;8.35;2.67;;;18.00;99.90;;;;;;6197236;28;20101;-75
2021/07/19 04:39:53;;;;;;;3.30;2.40;;;18.00;99.90;;;;;;6197711;28;20050;-75
2021/07/19 04:42:56;;;;;;;3.88;2.40;;;18.10;99.80;;;;;;6197571;28;20042;-75
2021/07/19 04:45:57;;;;;;;2.92;2.35;;;18.10;99.60;;;;;;6197891;28;20046;-75
2021/07/19 04:49:01;;;;;;;5.18;3.15;;;18.20;99.30;;;;;;6197127;28;20093;-75
2021/07/19 04:52:03;;;;;;;3.78;2.67;;;18.20;99.30;;;;;;6197262;28;20204;-75
2021/07/19 04:55:07;;;;;;;4.55;3.40;;;18.40;99.20;;;;;;6198329;28;20531;-75
2021/07/19 04:58:10;;;;;;;4.10;3.42;;;18.50;99.10;;;;;;6196709;28;20133;-74
2021/07/19 05:01:14;;;;;;;3.95;2.72;;;18.60;99.00;;;;;;6201667;28;20423;-75
2021/07/19 05:04:21;;;;;;;4.13;2.95;;;18.60;98.60;;;;;;6201434;28;20046;-75
2021/07/19 05:07:25;;;;;;;3.07;2.37;;;18.70;98.80;;;;;;6201259;28;20050;-75
2021/07/19 05:10:28;;;;;;;5.78;3.90;;;18.80;98.70;;;;;;6201006;28;20488;-75
2021/07/19 05:13:31;;;;;;;4.63;1.92;;;18.90;98.60;;;;;;6201561;28;20137;-75
2021/07/19 05:16:35;;;;;;;3.25;2.88;;;19.10;98.50;;;;;;6200367;28;20054;-75
2021/07/19 05:19:39;;;;;;;6.60;2.85;;;19.30;98.30;;;;;;6201007;28;20074;-75
2021/07/19 05:22:46;;;;;;;7.57;3.80;;;19.50;98.20;;;;;;6200890;28;20050;-75
2021/07/19 05:25:48;;;;;;;5.28;3.03;;;19.70;98.10;;;;;;6201143;28;20056;-75
2021/07/19 05:28:50;;;;;;;6.85;3.08;;;20.00;97.40;;;;;;6200670;28;20522;-75
2021/07/19 05:31:51;;;;;;;4.90;3.08;;;20.20;96.30;;;;;;6200895;28;20124;-75
2021/07/19 05:34:55;;;;;;;4.25;3.40;;;20.50;95.10;;;;;;6200797;28;20125;-75
2021/07/19 05:37:57;;;;;;;7.07;3.45;;;20.70;93.60;;;;;;6200824;28;20471;-75
2021/07/19 05:40:58;;;;;;;5.85;3.72;;;20.80;93.20;;;;;;6200552;28;20089;-75
2021/07/19 05:44:00;;;;;;;6.18;3.60;;;20.90;92.60;;;;;;6200407;28;20118;-74
2021/07/19 05:47:03;;;;;;;7.30;3.53;;;21.00;92.20;;;;;;6200192;28;20427;-75
2021/07/19 05:50:08;;;;;;;5.65;3.60;;;21.20;91.70;;;;;;6200394;28;20185;-75
2021/07/19 05:53:10;;;;;;;7.75;2.92;;;21.30;91.40;;;;;;6200973;28;20061;-76
2021/07/19 05:56:12;;;;;;;10.15;4.72;;;21.50;91.30;;;;;;6199993;28;20053;-75
2021/07/19 05:59:14;;;;;;;4.95;3.80;;;21.70;90.80;;;;;;6200439;28;20073;-74
2021/07/19 06:02:17;;;;;;;7.68;3.90;;;21.80;89.40;;;;;;6199866;28;20101;-74
2021/07/19 06:05:21;;;;;;;4.55;3.28;;;21.90;89.20;;;;;;6190765;28;20046;-75
2021/07/19 06:08:22;;;;;;;6.72;4.35;;;22.10;89.10;;;;;;6199470;28;20120;-75
2021/07/19 06:11:24;;;;;;;10.35;3.83;;;22.40;87.60;;;;;;6199413;28;20184;-75
2021/07/19 06:14:26;;;;;;;5.00;4.38;;;22.80;86.40;;;;;;6199161;28;20516;-75
2021/07/19 06:17:28;;;;;;;5.68;4.82;;;23.50;81.40;;;;;;6199869;28;20518;-75
2021/07/19 06:20:31;;;;;;;4.35;3.78;;;24.40;76.30;;;;;;6199409;28;20200;-75
2021/07/19 06:23:33;;;;;;;4.93;4.45;;;24.90;73.20;;;;;;6199300;28;20132;-76
2021/07/19 06:26:35;;;;;;;5.97;4.30;;;25.20;71.50;;;;;;6199272;28;20129;-75
2021/07/19 06:29:36;;;;;;;5.50;3.63;;;25.40;69.70;;;;;;6199769;28;20144;-75
2021/07/19 06:32:39;;;;;;;10.25;6.07;;;25.70;68.60;;;;;;6199501;28;20050;-74
2021/07/19 06:35:42;;;;;;;5.63;4.30;;;25.90;67.70;;;;;;6199078;28;20125;-74
2021/07/19 06:38:43;;;;;;;7.75;4.55;;;26.10;66.20;;;;;;6199503;28;20058;-74
2021/07/19 06:41:45;;;;;;;8.43;4.80;;;26.20;65.40;;;;;;6199180;28;20188;-74
2021/07/19 06:44:49;;;;;;;10.82;3.97;;;26.30;64.80;;;;;;6198820;28;20125;-76
2021/07/19 06:47:52;;;;;;;7.55;4.07;;;26.30;64.80;;;;;;6198678;28;20535;-76
2021/07/19 06:50:55;;;;;;;5.85;4.75;;;26.30;64.00;;;;;;6198905;28;20057;-75
2021/07/19 06:53:57;;;;;;;4.53;4.13;;;26.40;63.80;;;;;;6199548;28;20133;-75
2021/07/19 06:56:59;;;;;;;5.75;5.15;;;26.40;63.80;;;;;;6198174;28;20181;-75
2021/07/19 07:00:01;;;;;;;4.38;3.97;;;26.10;63.80;;;;;;6198576;28;20448;-76
2021/07/19 07:03:03;;;;;;;6.57;4.22;;;25.90;65.00;;;;;;6198629;28;20056;-75
2021/07/19 07:06:06;;;;;;;11.15;4.80;;;25.60;66.10;;;;;;6198382;28;20053;-75
2021/07/19 07:09:08;;;;;;;7.85;4.60;;;25.60;65.70;;;;;;6198968;28;20121;-75
2021/07/19 07:12:10;;;;;;;11.02;5.28;;;25.60;66.30;;;;;;6198456;28;20046;-75
2021/07/19 07:15:13;;;;;;;6.38;3.78;;;25.70;66.00;;;;;;6198100;28;20177;-75
2021/07/19 07:18:14;;;;;;;5.70;3.80;;;25.90;65.90;;;;;;6197901;28;20054;-76
2021/07/19 07:21:18;;;;;;;13.60;4.10;;;26.00;65.20;;;;;;6198034;28;20091;-77
2021/07/19 07:24:20;;;;;;;5.30;4.18;;;26.10;64.30;;;;;;6198070;28;20164;-76
2021/07/19 07:27:24;;;;;;;8.35;4.50;;;26.10;64.10;;;;;;6198112;28;20046;-77
2021/07/19 07:30:26;;;;;;;5.40;4.53;;;26.20;64.70;;;;;;6198079;28;20050;-77
2021/07/19 07:33:28;;;;;;;5.65;3.80;;;26.30;63.60;;;;;;6198510;28;20142;-76
2021/07/19 07:36:33;;;;;;;6.47;4.07;;;26.40;64.00;;;;;;6197375;28;20520;-76
2021/07/19 07:39:35;;;;;;;4.93;3.90;;;26.50;63.20;;;;;;6197755;28;20133;-75
2021/07/19 07:42:37;;;;;;;5.97;4.38;;;26.50;63.20;;;;;;6197582;28;20124;-75
2021/07/19 07:45:39;;;;;;;7.90;3.70;;;26.60;63.90;;;;;;6199471;28;20155;-76
2021/07/19 07:48:41;;;;;;;7.57;4.20;;;26.70;63.00;;;;;;6198326;28;20172;-76
2021/07/19 07:51:44;;;;;;;7.00;4.57;;;26.80;63.20;;;;;;6197954;28;20519;-76
2021/07/19 07:54:47;;;;;;;4.32;3.40;;;27.00;62.50;;;;;;6197716;28;20043;-76
2021/07/19 07:57:49;;;;;;;7.10;3.90;;;27.00;62.50;;;;;;6198283;28;20054;-76
2021/07/19 08:00:51;;;;;;;7.18;3.85;;;27.10;62.30;;;;;;6197641;28;20169;-76
2021/07/19 08:03:52;;;;;;;4.97;3.88;;;27.20;62.00;;;;;;6197909;28;20061;-76
2021/07/19 08:06:56;;;;;;;4.20;3.35;;;27.20;61.90;;;;;;6197479;28;20069;-76
2021/07/19 08:09:59;;;;;;;6.57;4.60;;;27.30;62.00;;;;;;6197890;28;20512;-76
2021/07/19 08:13:01;;;;;;;5.43;3.80;;;27.40;61.50;;;;;;6197451;28;20486;-76
2021/07/19 08:16:03;;;;;;;4.20;3.80;;;27.50;61.50;;;;;;6227321;22;20082;-76
2021/07/19 08:19:05;;;;;;;4.78;3.22;;;27.60;61.10;;;;;;6221707;28;20050;-76
2021/07/19 08:22:13;;;;;;;5.97;4.47;;;27.60;60.80;;;;;;6221269;28;20132;-76
2021/07/19 08:25:15;;;;;;;4.70;3.17;;;27.70;59.80;;;;;;6220497;28;20136;-76
2021/07/19 08:28:16;;;;;;;4.22;3.15;;;27.70;60.20;;;;;;6210744;28;20428;-76
2021/07/19 08:31:18;;;;;;;4.28;3.75;;;27.70;60.20;;;;;;6221347;28;20084;-76
2021/07/19 08:34:20;;;;;;;5.82;3.85;;;27.70;60.50;;;;;;6224353;28;20527;-75
2021/07/19 08:37:25;;;;;;;5.72;3.70;;;27.80;60.10;;;;;;6226007;28;20639;-77
2021/07/19 08:40:27;;;;;;;6.65;3.85;;;27.90;60.00;;;;;;6225239;28;20053;-76
2021/07/19 08:43:31;;;;;;;5.70;3.45;;;28.10;60.10;;;;;;6224453;28;20054;-77
2021/07/19 08:46:33;;;;;;;9.10;4.72;;;28.40;58.90;;;;;;6225339;28;20568;-76
2021/07/19 08:49:35;;;;;;;9.63;3.70;;;28.80;57.90;;;;;;6225814;28;20076;-76
2021/07/19 08:52:39;;;;;;;5.68;4.40;;;29.10;57.80;;;;;;6225474;28;20130;-76
2021/07/19 08:55:41;;;;;;;4.43;4.00;;;29.40;56.90;;;;;;6226318;28;20045;-76
2021/07/19 08:58:44;;;;;;;6.78;4.95;;;29.70;56.30;;;;;;6228683;28;20129;-77
2021/07/19 09:01:47;;;;;;;3.95;3.65;;;29.90;55.40;;;;;;6225786;28;20385;-76
2021/07/19 09:04:48;;;;;;;10.32;4.18;;;30.00;55.30;;;;;;6225087;28;20090;-76
2021/07/19 09:07:53;;;;;;;8.10;3.90;;;30.20;53.80;;;;;;6224967;28;20083;-76
2021/07/19 09:10:55;;;;;;;5.38;3.90;;;30.30;54.20;;;;;;6225181;28;20045;-76
2021/07/19 09:14:01;;;;;;;5.43;4.22;;;30.50;53.50;;;;;;6225342;28;20119;-76
2021/07/19 09:17:03;;;;;;;5.35;3.63;;;30.80;53.50;;;;;;6224580;28;20136;-77
2021/07/19 09:20:09;;;;;;;8.07;4.95;;;31.10;52.60;;;;;;6224789;28;20125;-76
2021/07/19 09:23:12;;;;;;;5.15;4.65;;;31.30;52.20;;;;;;6225321;28;20045;-77
2021/07/19 09:26:14;;;;;;;8.82;4.22;;;31.60;52.60;;;;;;6224565;28;20133;-77
2021/07/19 09:29:19;;;;;;;7.82;3.72;;;31.90;49.90;;;;;;6225090;28;20530;-77
2021/07/19 09:32:20;;;;;;;8.48;3.75;;;31.90;50.40;;;;;;6224767;28;20547;-76
2021/07/19 09:35:23;;;;;;;8.68;3.55;;;32.10;50.00;;;;;;6224584;28;20209;-77
2021/07/19 09:38:29;;;;;;;10.10;4.43;;;32.30;50.00;;;;;;6224296;28;20141;-77
2021/07/19 09:41:31;;;;;;;6.90;4.13;;;32.60;49.10;;;;;;6224898;28;20060;-77
2021/07/19 09:44:33;;;;;;;7.30;3.67;;;32.60;49.60;;;;;;6223608;28;20045;-77
2021/07/19 09:47:36;;;;;;;7.93;2.97;;;32.90;48.50;;;;;;6224054;28;20058;-77
2021/07/19 09:50:44;;;;;;;7.68;4.03;;;33.10;48.50;;;;;;6224518;28;20069;-77
2021/07/19 09:53:48;;;;;;;8.75;3.63;;;33.30;47.30;;;;;;6224735;28;20521;-77
2021/07/19 09:56:58;;;;;;;6.20;3.67;;;33.50;47.30;;;;;;6224409;28;20050;-76
2021/07/19 10:00:00;;;;;;;4.88;4.25;;;33.40;46.90;;;;;;6224059;28;20069;-77
2021/07/19 10:03:13;;;;;;;10.65;4.15;;;33.20;47.00;;;;;;6224335;28;20057;-77
2021/07/19 10:06:15;;;;;;;4.57;3.65;;;32.90;47.70;;;;;;6223419;28;20054;-76
2021/07/19 10:09:20;;;;;;;6.18;3.45;;;32.60;47.70;;;;;;6224021;28;20514;-77
2021/07/19 10:12:22;;;;;;;5.30;2.97;;;32.50;49.60;;;;;;6223772;28;20046;-77
2021/07/19 10:15:24;;;;;;;11.55;3.65;;;32.70;49.10;;;;;;6223483;28;20049;-77
2021/07/19 10:18:30;;;;;;;6.30;3.08;;;;;;;;;;6223479;28;20062;-76
2021/07/19 10:21:34;;;;;;;4.43;3.65;;;33.00;47.50;;;;;;6224044;28;20049;-77
2021/07/19 10:24:40;;;;;;;9.88;3.40;;;32.80;47.50;;;;;;6223314;28;20054;-76
2021/07/19 10:27:44;;;;;;;6.05;3.83;;;32.90;48.00;;;;;;6223041;28;20042;-77
2021/07/19 10:30:46;;;;;;;5.65;3.05;;;33.10;47.70;;;;;;6223385;28;20050;-77
2021/07/19 10:33:48;;;;;;;8.48;3.50;;;32.80;47.50;;;;;;6223697;28;20140;-77
2021/07/19 10:36:54;;;;;;;5.28;2.53;;;32.70;48.10;;;;;;6222779;28;20045;-76
2021/07/19 10:39:59;;;;;;;8.20;3.50;;;32.60;47.50;;;;;;6222971;28;20049;-77
2021/07/19 10:43:07;;;;;;;4.57;2.90;;;32.80;47.10;;;;;;6222858;28;20533;-77
2021/07/19 10:46:09;;;;;;;;;;;32.90;46.80;;;;;;6222954;28;20049;-77
2021/07/19 10:49:13;;;;;;;4.45;2.28;;;33.00;47.10;;;;;;6223504;28;20011;-77
2021/07/19 10:52:17;;;;;;;4.72;3.15;;;33.00;45.30;;;;;;6222564;28;20125;-76
2021/07/19 10:55:28;;;;;;;5.43;3.22;;;33.30;45.70;;;;;;6222498;28;20392;-76
2021/07/19 10:58:39;;;;;;;6.70;3.35;;;33.50;45.20;;;;;;6222432;28;20038;-77
2021/07/19 11:01:51;;;;;;;6.00;2.90;;;33.70;45.10;;;;;;6222717;28;20128;-77
2021/07/19 11:04:53;;;;;;;3.58;2.63;;;33.50;44.80;;;;;;6222274;28;20053;-77
2021/07/19 11:07:55;;;;;;;3.35;3.05;;;33.40;45.30;;;;;;6222155;28;20486;-76
2021/07/19 11:10:59;;;;;;;4.38;2.97;;;33.10;45.90;;;;;;6222223;28;20045;-76
2021/07/19 11:14:03;;;;;;;7.30;2.88;;;32.70;47.00;;;;;;6223330;28;20104;-76
2021/07/19 11:17:10;;;;;;;4.45;2.65;;;32.80;46.50;;;;;;6221623;28;20495;-76
2021/07/19 11:20:13;;;;;;;5.32;3.42;;;33.10;45.50;;;;;;6222371;28;20100;-77
2021/07/19 11:23:24;;;;;;;2.85;2.45;;;33.30;45.80;;;;;;6222172;28;20050;-76
2021/07/19 11:26:29;;;;;;;6.22;3.25;;;33.40;45.60;;;;;;6221724;28;20046;-76
2021/07/19 11:29:32;;;;;;;3.33;3.03;;;33.20;46.40;;;;;;6222324;28;20408;-76
2021/07/19 11:32:35;;;;;;;3.92;2.88;;;33.10;46.00;;;;;;6221702;28;20448;-75
2021/07/19 11:35:41;;;;;;;3.47;2.28;;;33.10;45.70;;;;;;6221579;28;20052;-77
2021/07/19 11:38:43;;;;;;;10.73;3.30;;;33.20;45.80;;;;;;6222559;28;20095;-76
2021/07/19 11:41:46;;;;;;;5.47;3.30;;;33.20;45.30;;;;;;6222096;28;20132;-76
2021/07/19 11:44:48;;;;;;;4.75;3.00;;;32.80;45.50;;;;;;6221663;28;20093;-77
2021/07/19 11:47:52;;;;;;;6.10;2.50;;;32.80;45.90;;;;;;6221235;28;20573;-76
2021/07/19 11:50:57;;;;;;;3.88;2.60;;;32.80;45.30;;;;;;6221560;28;20045;-77
2021/07/19 11:57:01;;;;;;;10.38;3.25;;;32.80;45.50;;;;;;6234465;23;20054;-76
2021/07/19 12:00:04;;;;;;;3.47;2.63;;;33.00;45.20;;;;;;6222090;28;20512;-76
2021/07/19 12:03:07;;;;;;;4.10;3.03;;;33.10;44.80;;;;;;6222505;28;20133;-76
2021/07/19 12:06:11;;;;;;;4.68;2.60;;;33.30;44.10;;;;;;6221814;28;20045;-77
2021/07/19 12:09:13;;;;;;;6.32;3.22;;;33.40;43.70;;;;;;6225720;28;20079;-76
2021/07/19 12:12:16;;;;;;;4.35;2.50;;;33.30;43.30;;;;;;6226865;28;20088;-77
2021/07/19 12:15:18;;;;;;;6.57;3.20;;;33.20;43.60;;;;;;6226799;28;20046;-77
2021/07/19 12:18:29;;;;;;;5.40;2.50;;;33.20;44.30;;;;;;6226429;28;20124;-77
2021/07/19 12:21:31;;;;;;;4.00;2.67;;;33.30;44.00;;;;;;6227303;28;20061;-77
2021/07/19 12:24:33;;;;;;;5.20;2.90;;;33.40;44.00;;;;;;6226430;28;20050;-76
2021/07/19 12:27:36;;;;;;;5.10;2.47;;;33.50;44.40;;;;;;6231568;28;20049;-76
2021/07/19 12:30:38;;;;;;;7.38;2.97;;;33.70;43.70;;;;;;6231474;28;20176;-76
2021/07/19 12:33:39;;;;;;;7.85;3.45;;;33.80;43.40;;;;;;6226912;28;20070;-76
2021/07/19 12:36:46;;;;;;;5.55;3.35;;;33.90;43.10;;;;;;6225627;28;20200;-76
2021/07/19 12:39:50;;;;;;;6.53;2.27;;;34.00;42.60;;;;;;6226173;28;20135;-77
2021/07/19 12:42:55;;;;;;;6.25;2.72;;;34.00;42.70;;;;;;6225672;28;20083;-77
2021/07/19 12:45:57;;;;;;;9.23;3.00;;;33.90;41.20;;;;;;6226173;28;20052;-77
2021/07/19 12:48:58;;;;;;;7.13;3.10;;;34.00;42.30;;;;;;6226039;28;20409;-76
2021/07/19 12:52:02;;;;;;;5.40;2.75;;;34.00;41.70;;;;;;6225815;28;20083;-76
2021/07/19 12:55:06;;;;;;;4.22;2.53;;;34.00;40.80;;;;;;6225581;28;20100;-77
2021/07/19 12:58:13;;;;;;;4.60;2.75;;;33.80;40.50;;;;;;6225401;28;20090;-76
2021/07/19 13:01:15;;;;;;;5.13;2.55;;;33.80;41.80;;;;;;6225901;28;20506;-76
2021/07/19 13:04:19;;;;;;;5.13;2.13;;;33.90;41.30;;;;;;6225131;28;20049;-77
2021/07/19 13:07:29;;;;;;;5.50;2.30;;;33.90;41.70;;;;;;6225586;28;20046;-76
2021/07/19 13:10:31;;;;;;;4.22;2.22;;;33.90;41.40;;;;;;6225780;28;20123;-77
2021/07/19 13:13:34;;;;;;;5.00;3.10;;;33.80;41.00;;;;;;6225167;28;20046;-77
2021/07/19 13:16:36;;;;;;;4.25;2.63;;;33.80;40.60;;;;;;6224584;28;20074;-77
2021/07/19 13:19:39;;;;;;;6.15;2.90;;;33.80;39.60;;;;;;6223785;28;20577;-76
2021/07/19 13:22:43;;;;;;;7.00;3.08;;;33.80;40.90;;;;;;6224744;28;20432;-76
2021/07/19 13:25:46;;;;;;;5.63;3.05;;;33.80;41.00;;;;;;6225261;28;20133;-76
2021/07/19 13:28:49;;;;;;;5.28;2.78;;;33.90;40.70;;;;;;6228671;28;20065;-78
2021/07/19 13:31:51;;;;;;;7.70;3.13;;;34.10;41.10;;;;;;6229068;28;20125;-79
2021/07/19 13:34:57;;;;;;;10.02;3.63;;;34.20;41.10;;;;;;6229691;28;20187;-79
2021/07/19 13:38:01;;;;;;;10.27;3.00;;;34.30;40.60;;;;;;6230428;28;20052;-80
2021/07/19 13:41:03;;;;;;;6.47;2.15;;;34.30;41.00;;;;;;6230035;28;20123;-79
2021/07/19 13:44:06;;;;;;;4.18;2.63;;;34.30;41.10;;;;;;6230078;28;20495;-79
2021/07/19 13:47:08;;;;;;;2.88;2.00;;;34.40;40.70;;;;;;6231032;28;20092;-80
2021/07/19 13:50:11;;;;;;;6.35;3.05;;;34.30;41.00;;;;;;6230915;28;20084;-80
2021/07/19 13:53:13;;;;;;;6.35;2.47;;;34.20;40.40;;;;;;6230520;28;20137;-80
2021/07/19 13:56:15;;;;;;;5.85;2.50;;;34.20;40.50;;;;;;6228815;28;20125;-79
2021/07/19 13:59:18;;;;;;;3.10;2.30;;;34.30;39.50;;;;;;6229336;28;20055;-79
2021/07/19 14:02:20;;;;;;;6.55;3.22;;;34.30;40.00;;;;;;6228814;28;20078;-79
2021/07/19 14:05:22;;;;;;;5.00;2.88;;;34.20;39.60;;;;;;6228741;28;20157;-78
2021/07/19 14:08:24;;;;;;;10.55;2.10;;;34.00;39.70;;;;;;6227719;28;20133;-78
2021/07/19 14:11:26;;;;;;;2.90;1.98;;;33.70;40.80;;;;;;6228926;28;20050;-79
2021/07/19 14:14:30;;;;;;;2.80;2.30;;;33.80;40.80;;;;;;6229179;28;20049;-78
2021/07/19 14:17:32;;;;;;;5.22;2.15;;;33.80;40.20;;;;;;6229489;28;20141;-78
2021/07/19 14:20:34;;;;;;;14.90;3.55;;;33.80;39.40;;;;;;6228219;28;20660;-78
2021/07/19 14:23:36;;;;;;;4.40;2.60;;;33.80;39.00;;;;;;6227438;28;20531;-79
2021/07/19 14:26:37;;;;;;;3.70;2.20;;;33.60;39.00;;;;;;6228681;28;20087;-79
2021/07/19 14:29:41;;;;;;;9.10;2.08;;;33.60;39.10;;;;;;6229026;28;20482;-78
2021/07/19 14:32:44;;;;;;;5.45;2.72;;;33.30;39.10;;;;;;6228113;28;20170;-78
2021/07/19 14:35:45;;;;;;;3.20;2.85;;;33.20;39.60;;;;;;6227558;28;20046;-78
2021/07/19 14:38:47;;;;;;;4.50;2.53;;;33.10;39.30;;;;;;6228711;28;20185;-79
2021/07/19 14:41:49;;;;;;;7.32;2.17;;;33.20;39.00;;;;;;6228803;28;20133;-78
2021/07/19 14:44:52;;;;;;;7.00;2.45;;;33.00;39.30;;;;;;6227789;28;20474;-78
2021/07/19 14:47:55;;;;;;;6.72;3.25;;;32.90;39.90;;;;;;6227917;28;20046;-78
2021/07/19 14:50:56;;;;;;;4.45;2.38;;;32.70;39.70;;;;;;6228349;28;20045;-77
2021/07/19 14:53:59;;;;;;;9.02;2.88;;;32.50;40.10;;;;;;6227441;28;20120;-77
2021/07/19 14:57:01;;;;;;;4.88;2.72;;;32.50;40.40;;;;;;6225788;28;20121;-79
2021/07/19 15:00:07;;;;;;;7.38;3.38;;;32.50;40.60;;;;;;6227603;28;20585;-80
2021/07/19 15:03:10;;;;;;;6.30;3.58;;;32.60;40.40;;;;;;6227685;28;20396;-80
2021/07/19 15:06:11;;;;;;;9.68;3.85;;;32.60;40.30;;;;;;6229806;28;20049;-78
2021/07/19 15:09:13;;;;;;;7.93;4.15;;;32.50;40.10;;;;;;6229830;28;20129;-79
2021/07/19 15:12:15;;;;;;;10.50;3.67;;;32.30;40.40;;;;;;6228432;28;20121;-79
2021/07/19 15:15:18;;;;;;;5.80;4.28;;;32.40;40.00;;;;;;6228358;28;20065;-80
2021/07/19 15:18:20;;;;;;;9.88;3.83;;;32.40;39.10;;;;;;6228401;28;20057;-80
2021/07/19 15:21:22;;;;;;;5.00;4.03;;;32.50;38.70;;;;;;6228800;28;20650;-79
2021/07/19 15:24:24;;;;;;;6.00;3.90;;;32.30;37.60;;;;;;6228067;28;20041;-78
2021/07/19 15:27:26;;;;;;;8.18;5.40;;;32.10;39.40;;;;;;6227904;28;20049;-79
2021/07/19 15:30:29;;;;;;;9.68;5.10;;;32.00;39.10;;;;;;6227600;28;20126;-79
2021/07/19 15:33:31;;;;;;;7.32;5.15;;;32.10;39.10;;;;;;6226343;28;20128;-78
2021/07/19 15:36:33;;;;;;;6.45;5.68;;;32.10;39.10;;;;;;6226885;28;20056;-78
2021/07/19 15:39:35;;;;;;;7.15;4.70;;;32.10;39.60;;;;;;6213275;28;20145;-78
2021/07/19 15:42:36;;;;;;;9.13;5.80;;;32.20;39.20;;;;;;6227184;28;20105;-79
2021/07/19 15:45:40;;;;;;;7.88;6.25;;;32.20;38.80;;;;;;6225680;28;20422;-78
2021/07/19 15:48:41;;;;;;;10.15;6.75;;;32.30;39.10;;;;;;6225995;28;20439;-78
2021/07/19 15:51:43;;;;;;;5.97;5.35;;;32.30;39.20;;;;;;6227168;28;20144;-78
2021/07/19 15:54:45;;;;;;;10.43;6.93;;;32.30;38.60;;;;;;6227489;28;20176;-78